Terminal Aerodrome Forecast
Issued by NWS

Home | Current Version | Previous Version | Graphics & Text | Print | Product List | Glossary On
Versions: 1 2 3 4 5 6 7 8 9 10 11 12 13 14 15 16 17 18 19 20 21 22 23 24 25 26 27
000
FTUS43 KDLH 260200 AAA
TAFHYR
TAF AMD
KHYR 260218Z 2602/2624 20004KT 5SM -SN OVC013
      TEMPO 2602/2606 1SM -SN OVC009
     FM260900 02005KT P6SM -SN OVC011
     FM261700 36007KT P6SM OVC013
     FM262100 35005KT P6SM BKN018 OVC030=

USA.gov is the U.S. government's official web portal to all federal, state and local government web resources and services.